createdAt,value
2022-07-31T00:08:11.733Z,11.52
2022-07-31T00:13:13.760Z,8.27
2022-07-31T00:18:15.694Z,6.80
2022-07-31T00:23:19.041Z,7.68
2022-07-31T00:28:21.275Z,7.90
2022-07-31T00:33:23.001Z,7.77
2022-07-31T00:38:26.930Z,8.15
2022-07-31T00:43:30.824Z,6.97
2022-07-31T00:48:33.643Z,5.88
2022-07-31T00:53:35.797Z,7.95
2022-07-31T00:58:37.519Z,7.35
2022-07-31T01:03:39.430Z,9.10
2022-07-31T01:08:41.462Z,5.53
2022-07-31T01:13:55.995Z,6.23
2022-07-31T01:18:58.830Z,8.48
2022-07-31T01:24:17.856Z,7.07
2022-07-31T01:29:56.583Z,7.38
2022-07-31T01:35:05.288Z,10.65
2022-07-31T01:40:15.304Z,7.85
2022-07-31T01:45:21.056Z,9.02
2022-07-31T01:50:43.570Z,7.38
2022-07-31T01:56:02.734Z,7.95
2022-07-31T02:01:14.129Z,8.77
2022-07-31T02:06:18.970Z,11.77
2022-07-31T02:11:22.048Z,9.35
2022-07-31T02:16:26.300Z,10.73
2022-07-31T02:21:37.594Z,9.38
2022-07-31T02:26:40.510Z,8.55
2022-07-31T02:31:44.392Z,9.47
2022-07-31T02:36:47.282Z,9.63
2022-07-31T02:46:51.780Z,10.40
2022-07-31T02:56:56.100Z,9.68
2022-07-31T03:01:58.918Z,8.20
2022-07-31T03:07:02.182Z,9.40
2022-07-31T03:12:04.990Z,10.57
2022-07-31T03:22:13.653Z,11.38
2022-07-31T03:27:17.170Z,8.00
2022-07-31T03:32:19.526Z,9.98
2022-07-31T03:37:21.605Z,8.70
2022-07-31T03:42:24.348Z,7.93
2022-07-31T03:47:26.193Z,10.20
2022-07-31T03:52:29.654Z,8.30
2022-07-31T03:57:34.083Z,10.18
2022-07-31T04:02:36.584Z,9.70
2022-07-31T04:08:04.786Z,10.18
2022-07-31T04:13:07.009Z,10.32
2022-07-31T04:18:08.854Z,8.83
2022-07-31T04:23:16.633Z,9.80
2022-07-31T04:28:37.616Z,8.48
2022-07-31T04:33:47.357Z,10.57
2022-07-31T04:38:50.910Z,7.70
2022-07-31T04:43:53.058Z,10.10
2022-07-31T04:48:55.831Z,9.77
2022-07-31T04:54:01.194Z,8.52
2022-07-31T04:59:09.861Z,12.15
2022-07-31T05:04:15.414Z,8.85
2022-07-31T05:14:27.808Z,10.02
2022-07-31T05:19:30.370Z,11.98
2022-07-31T05:24:58.459Z,8.43
2022-07-31T05:30:00.562Z,14.53
2022-07-31T05:35:02.302Z,12.82
2022-07-31T05:40:04.470Z,11.45
2022-07-31T05:45:24.659Z,11.40
2022-07-31T05:50:26.608Z,14.40
2022-07-31T05:55:28.351Z,11.63
2022-07-31T06:00:50.246Z,12.77
2022-07-31T06:05:52.100Z,13.18
2022-07-31T06:10:54.425Z,9.73
2022-07-31T06:15:56.339Z,12.03
2022-07-31T06:20:58.025Z,11.43
2022-07-31T06:26:00.552Z,9.57
2022-07-31T06:31:02.429Z,12.33
2022-07-31T06:36:04.274Z,10.38
2022-07-31T06:41:39.686Z,14.18
2022-07-31T06:47:00.312Z,9.05
2022-07-31T06:52:18.114Z,12.02
2022-07-31T06:57:20.375Z,12.75
2022-07-31T07:02:22.196Z,11.73
2022-07-31T07:07:24.120Z,12.98
2022-07-31T07:12:34.796Z,15.82
2022-07-31T07:17:36.799Z,13.93
2022-07-31T07:22:44.130Z,11.63
2022-07-31T07:27:49.155Z,11.70
2022-07-31T07:32:51.063Z,12.25
2022-07-31T07:37:53.345Z,13.13
2022-07-31T07:42:58.799Z,12.32
2022-07-31T07:48:06.772Z,10.13
2022-07-31T07:53:25.084Z,13.40
2022-07-31T07:58:48.996Z,10.93
2022-07-31T08:04:10.802Z,12.52
2022-07-31T08:09:12.764Z,10.77
2022-07-31T08:14:40.068Z,9.32
2022-07-31T08:20:01.861Z,11.27
2022-07-31T08:25:05.763Z,9.43
2022-07-31T08:30:08.953Z,11.75
2022-07-31T08:35:10.725Z,10.18
2022-07-31T08:40:13.527Z,8.40
2022-07-31T08:45:15.391Z,8.70
2022-07-31T08:50:44.132Z,8.65
2022-07-31T08:55:57.813Z,8.63
2022-07-31T09:01:04.622Z,7.10
2022-07-31T09:06:06.715Z,11.07
2022-07-31T09:11:12.332Z,10.77
2022-07-31T09:16:24.369Z,6.82
2022-07-31T09:21:41.606Z,7.82
2022-07-31T09:26:44.377Z,7.75
2022-07-31T09:31:46.859Z,7.63
2022-07-31T09:37:25.650Z,5.60
2022-07-31T09:42:59.762Z,7.15
2022-07-31T09:48:15.279Z,6.57
2022-07-31T09:53:22.013Z,5.68
2022-07-31T09:58:28.064Z,4.97
2022-07-31T10:03:29.833Z,7.27
2022-07-31T10:08:37.043Z,4.47
2022-07-31T10:14:01.229Z,4.95
2022-07-31T10:19:11.330Z,6.00
2022-07-31T10:24:40.374Z,7.90
2022-07-31T10:29:42.561Z,9.77
2022-07-31T10:34:45.510Z,5.15
2022-07-31T10:40:08.743Z,4.45
2022-07-31T10:45:17.831Z,6.47
2022-07-31T10:50:36.975Z,4.88
2022-07-31T10:55:42.779Z,5.07
2022-07-31T11:01:09.718Z,4.82
2022-07-31T11:06:11.824Z,8.35
2022-07-31T11:11:39.523Z,6.05
2022-07-31T11:17:00.370Z,3.38
2022-07-31T11:22:30.611Z,3.65
2022-07-31T11:27:34.771Z,6.75
2022-07-31T11:32:36.469Z,4.05
2022-07-31T11:37:46.799Z,4.72
2022-07-31T11:43:24.842Z,4.78
2022-07-31T11:48:25.439Z,4.70
2022-07-31T11:53:29.114Z,4.95
2022-07-31T11:58:30.853Z,4.93
2022-07-31T12:03:36.682Z,6.28
2022-07-31T12:08:39.984Z,6.20
2022-07-31T12:13:46.610Z,5.07
2022-07-31T12:18:59.276Z,4.47
2022-07-31T12:24:01.487Z,7.22
2022-07-31T12:29:11.415Z,8.57
2022-07-31T12:34:25.065Z,3.58
2022-07-31T12:39:47.544Z,4.63
2022-07-31T12:44:50.280Z,4.35
2022-07-31T12:49:52.904Z,4.90
2022-07-31T12:54:55.273Z,4.93
2022-07-31T12:59:57.109Z,4.50
2022-07-31T13:04:58.857Z,5.43
2022-07-31T13:10:19.068Z,4.20
2022-07-31T13:15:29.600Z,3.30
2022-07-31T13:20:32.786Z,3.75
2022-07-31T13:25:34.541Z,3.95
2022-07-31T13:30:36.317Z,4.28
2022-07-31T13:35:38.051Z,4.03
2022-07-31T13:40:58.653Z,3.25
2022-07-31T13:46:00.737Z,4.75
2022-07-31T13:51:03.077Z,3.45
2022-07-31T14:01:06.796Z,6.57
2022-07-31T14:06:08.801Z,3.60
2022-07-31T14:11:22.404Z,5.22
2022-07-31T14:21:26.085Z,4.33
2022-07-31T14:26:28.320Z,4.45
2022-07-31T14:31:30.108Z,3.28
2022-07-31T14:36:31.787Z,3.70
2022-07-31T14:41:34.322Z,4.80
2022-07-31T14:46:36.182Z,5.00
2022-07-31T14:51:37.922Z,5.05
2022-07-31T14:57:00.237Z,5.10
2022-07-31T15:02:01.571Z,6.00
2022-07-31T15:07:32.473Z,4.40
2022-07-31T15:17:27.381Z,4.33
2022-07-31T15:27:30.763Z,3.97
2022-07-31T15:32:32.507Z,3.15
2022-07-31T15:37:39.381Z,4.35
2022-07-31T15:42:42.645Z,5.85
2022-07-31T15:47:45.818Z,3.67
2022-07-31T15:52:48.636Z,4.85
2022-07-31T15:57:50.450Z,5.00
2022-07-31T16:02:52.487Z,4.85
2022-07-31T16:08:32.410Z,2.75
2022-07-31T16:13:16.146Z,4.82
2022-07-31T16:18:18.764Z,4.40
2022-07-31T16:23:20.570Z,3.72
2022-07-31T16:28:22.313Z,4.03
2022-07-31T16:33:24.094Z,3.38
2022-07-31T16:38:26.076Z,3.30
2022-07-31T16:43:49.828Z,3.45
2022-07-31T16:48:49.505Z,4.15
2022-07-31T16:54:13.514Z,5.07
2022-07-31T16:59:13.277Z,3.30
2022-07-31T17:04:14.950Z,3.90
2022-07-31T17:09:18.542Z,3.45
2022-07-31T17:14:23.927Z,4.07
2022-07-31T17:19:42.492Z,4.18
2022-07-31T17:24:51.670Z,3.08
2022-07-31T17:29:53.766Z,4.32
2022-07-31T17:34:55.878Z,3.95
2022-07-31T17:39:58.157Z,4.25
2022-07-31T17:45:01.894Z,4.05
2022-07-31T17:50:04.329Z,4.15
2022-07-31T17:55:07.974Z,4.28
2022-07-31T18:00:10.088Z,6.15
2022-07-31T18:10:13.574Z,5.28
2022-07-31T18:15:15.559Z,4.95
2022-07-31T18:20:19.320Z,4.78
2022-07-31T18:25:20.996Z,7.35
2022-07-31T18:30:23.666Z,3.15
2022-07-31T18:35:32.099Z,5.15
2022-07-31T18:40:33.788Z,3.28
2022-07-31T18:45:36.037Z,6.22
2022-07-31T18:50:58.608Z,4.43
2022-07-31T18:56:05.065Z,3.90
2022-07-31T19:01:06.752Z,3.87
2022-07-31T19:06:08.678Z,4.57
2022-07-31T19:11:11.722Z,3.53
2022-07-31T19:16:13.553Z,3.97
2022-07-31T19:21:41.681Z,6.95
2022-07-31T19:26:41.055Z,4.38
2022-07-31T19:31:42.741Z,5.50
2022-07-31T19:36:44.483Z,5.17
2022-07-31T19:42:11.695Z,5.20
2022-07-31T19:47:08.027Z,5.45
2022-07-31T19:52:11.194Z,4.50
2022-07-31T19:57:12.910Z,4.32
2022-07-31T20:02:16.949Z,8.53
2022-07-31T20:07:18.880Z,3.78
2022-07-31T20:12:20.755Z,5.13
2022-07-31T20:17:22.440Z,3.93
2022-07-31T20:22:24.245Z,3.90
2022-07-31T20:27:26.159Z,5.13
2022-07-31T20:32:27.848Z,4.27
2022-07-31T20:37:30.581Z,4.82
2022-07-31T20:42:32.269Z,4.87
2022-07-31T20:47:33.872Z,4.00
2022-07-31T20:52:35.582Z,5.50
2022-07-31T20:57:37.174Z,4.70
2022-07-31T21:02:39.252Z,3.83
2022-07-31T21:07:40.966Z,3.70
2022-07-31T21:12:42.602Z,5.90
2022-07-31T21:17:44.342Z,4.03
2022-07-31T21:22:46.059Z,3.80
2022-07-31T21:27:47.917Z,5.87
2022-07-31T21:32:49.985Z,5.10
2022-07-31T21:37:54.754Z,5.63
2022-07-31T21:42:58.859Z,4.93
2022-07-31T21:48:09.105Z,6.18
2022-07-31T21:53:11.340Z,4.93
2022-07-31T21:58:13.211Z,5.22
2022-07-31T22:03:14.939Z,3.85
2022-07-31T22:08:16.978Z,5.43
2022-07-31T22:13:19.729Z,4.75
2022-07-31T22:18:21.870Z,4.20
2022-07-31T22:23:23.888Z,6.55
2022-07-31T22:28:27.121Z,5.15
2022-07-31T22:33:28.892Z,5.40
2022-07-31T22:38:30.859Z,3.20
2022-07-31T22:44:12.926Z,4.60
2022-07-31T22:48:55.885Z,4.40
2022-07-31T22:53:57.638Z,7.82
2022-07-31T22:58:59.301Z,6.57
2022-07-31T23:04:01.072Z,7.30
2022-07-31T23:09:03.082Z,6.20
2022-07-31T23:14:04.761Z,5.28
2022-07-31T23:19:06.490Z,7.33
2022-07-31T23:24:08.852Z,6.30
2022-07-31T23:29:11.179Z,6.10
2022-07-31T23:34:15.817Z,6.63
2022-07-31T23:39:18.480Z,6.80
2022-07-31T23:44:24.952Z,5.63
2022-07-31T23:49:27.016Z,5.85
2022-07-31T23:54:28.817Z,5.03
2022-07-31T23:59:30.556Z,4.27
